createdAt,value
2023-01-17T00:01:53.947Z,76.92
2023-01-17T00:04:41.050Z,77.69
2023-01-17T00:07:30.155Z,77.89
2023-01-17T00:09:59.700Z,78.04
2023-01-17T00:12:30.033Z,78.10
2023-01-17T00:15:00.098Z,77.92
2023-01-17T00:17:30.562Z,77.76
2023-01-17T00:20:20.032Z,77.47
2023-01-17T00:23:05.912Z,77.27
2023-01-17T00:25:55.317Z,77.31
2023-01-17T00:28:22.967Z,77.39
2023-01-17T00:30:50.424Z,77.13
2023-01-17T00:33:17.922Z,78.05
2023-01-17T00:35:46.445Z,78.58
2023-01-17T00:38:15.498Z,78.77
2023-01-17T00:40:44.318Z,79.06
2023-01-17T00:43:31.828Z,79.24
2023-01-17T00:46:17.830Z,79.15
2023-01-17T00:49:04.181Z,79.37
2023-01-17T00:51:53.091Z,79.37
2023-01-17T00:54:39.065Z,79.52
2023-01-17T00:57:25.537Z,79.74
2023-01-17T01:00:11.430Z,79.89
2023-01-17T01:02:58.077Z,79.82
2023-01-17T01:05:44.070Z,79.80
2023-01-17T01:08:39.791Z,79.86
2023-01-17T01:11:27.822Z,79.59
2023-01-17T01:14:13.784Z,78.53
2023-01-17T01:16:59.664Z,78.69
2023-01-17T01:19:45.626Z,80.08
2023-01-17T01:22:31.275Z,80.72
2023-01-17T01:25:18.273Z,80.75
2023-01-17T01:28:03.970Z,80.59
2023-01-17T01:30:49.958Z,80.29
2023-01-17T01:33:20.075Z,79.78
2023-01-17T01:35:50.464Z,79.77
2023-01-17T01:38:19.497Z,79.66
2023-01-17T01:40:51.678Z,79.53
2023-01-17T01:43:40.154Z,79.59
2023-01-17T01:46:08.892Z,79.27
2023-01-17T01:48:40.540Z,79.16
2023-01-17T01:51:16.207Z,79.17
2023-01-17T01:53:48.882Z,79.05
2023-01-17T01:56:20.246Z,78.76
2023-01-17T01:58:52.274Z,78.37
2023-01-17T02:01:21.238Z,78.53
2023-01-17T02:03:50.629Z,78.56
2023-01-17T02:06:29.992Z,78.47
2023-01-17T02:09:02.999Z,78.71
2023-01-17T02:11:33.438Z,78.77
2023-01-17T02:14:01.872Z,78.92
2023-01-17T02:16:44.431Z,78.57
2023-01-17T02:19:32.475Z,78.63
2023-01-17T02:22:16.267Z,78.83
2023-01-17T02:25:07.388Z,79.17
2023-01-17T02:27:50.181Z,79.14
2023-01-17T02:30:34.268Z,79.08
2023-01-17T02:33:15.972Z,78.91
2023-01-17T02:35:54.954Z,78.92
2023-01-17T02:38:33.234Z,78.90
2023-01-17T02:41:07.832Z,78.50
2023-01-17T02:43:38.338Z,78.62
2023-01-17T02:46:09.735Z,79.00
2023-01-17T02:48:39.901Z,79.20
2023-01-17T02:51:36.784Z,79.43
2023-01-17T02:54:24.937Z,79.42
2023-01-17T02:57:05.082Z,79.56
2023-01-17T02:59:41.927Z,79.59
2023-01-17T03:02:21.357Z,79.78
2023-01-17T03:04:55.272Z,79.95
2023-01-17T03:07:27.063Z,79.95
2023-01-17T03:10:00.512Z,79.47
2023-01-17T03:12:30.982Z,79.52
2023-01-17T03:15:00.456Z,79.48
2023-01-17T03:17:33.968Z,79.53
2023-01-17T03:20:02.243Z,79.77
2023-01-17T03:22:30.600Z,80.03
2023-01-17T03:24:58.865Z,80.12
2023-01-17T03:27:27.084Z,80.06
2023-01-17T03:29:55.278Z,80.01
2023-01-17T03:32:23.556Z,79.88
2023-01-17T03:34:53.112Z,79.88
2023-01-17T03:37:21.454Z,79.90
2023-01-17T03:39:49.692Z,79.98
2023-01-17T03:42:18.020Z,79.88
2023-01-17T03:44:46.264Z,79.90
2023-01-17T03:47:14.508Z,79.98
2023-01-17T03:49:42.966Z,80.13
2023-01-17T03:52:12.583Z,80.22
2023-01-17T03:54:40.865Z,80.52
2023-01-17T03:57:09.636Z,80.47
2023-01-17T03:59:37.852Z,80.36
2023-01-17T04:02:06.476Z,79.93
2023-01-17T04:04:35.088Z,79.95
2023-01-17T04:07:03.334Z,80.12
2023-01-17T04:09:34.542Z,79.98
2023-01-17T04:12:03.249Z,79.98
2023-01-17T04:14:31.645Z,80.30
2023-01-17T04:17:00.137Z,80.56
2023-01-17T04:19:28.572Z,80.41
2023-01-17T04:21:56.820Z,79.98
2023-01-17T04:24:25.096Z,80.04
2023-01-17T04:26:54.729Z,80.01
2023-01-17T04:29:23.157Z,80.16
2023-01-17T04:31:51.418Z,80.18
2023-01-17T04:34:19.824Z,80.01
2023-01-17T04:36:48.075Z,79.99
2023-01-17T04:39:16.887Z,80.17
2023-01-17T04:41:45.077Z,79.95
2023-01-17T04:44:14.658Z,80.01
2023-01-17T04:46:42.910Z,80.11
2023-01-17T04:49:11.414Z,80.33
2023-01-17T04:51:39.667Z,80.41
2023-01-17T04:54:07.942Z,80.37
2023-01-17T04:56:36.220Z,80.40
2023-01-17T04:59:04.470Z,80.20
2023-01-17T05:01:34.203Z,80.28
2023-01-17T05:04:02.688Z,80.26
2023-01-17T05:06:30.923Z,80.10
2023-01-17T05:08:59.158Z,80.15
2023-01-17T05:11:27.508Z,79.87
2023-01-17T05:13:55.726Z,79.86
2023-01-17T05:16:23.994Z,80.07
2023-01-17T05:18:54.562Z,80.14
2023-01-17T05:21:23.715Z,79.91
2023-01-17T05:23:52.113Z,79.91
2023-01-17T05:26:20.413Z,80.07
2023-01-17T05:28:48.881Z,80.09
2023-01-17T05:31:17.281Z,79.95
2023-01-17T05:33:45.543Z,80.43
2023-01-17T05:36:15.125Z,80.35
2023-01-17T05:38:43.418Z,80.40
2023-01-17T05:41:11.796Z,80.24
2023-01-17T05:43:40.038Z,80.18
2023-01-17T05:46:08.445Z,80.24
2023-01-17T05:48:36.733Z,80.29
2023-01-17T05:51:05.568Z,80.24
2023-01-17T05:53:35.474Z,80.62
2023-01-17T05:56:03.767Z,80.75
2023-01-17T05:58:32.852Z,80.81
2023-01-17T06:01:01.295Z,80.78
2023-01-17T06:03:29.647Z,80.69
2023-01-17T06:05:57.938Z,80.70
2023-01-17T06:08:26.162Z,80.78
2023-01-17T06:10:55.771Z,81.01
2023-01-17T06:13:23.987Z,80.98
2023-01-17T06:15:52.373Z,80.94
2023-01-17T06:18:20.729Z,81.07
2023-01-17T06:20:54.329Z,80.89
2023-01-17T06:23:24.435Z,80.97
2023-01-17T06:25:59.932Z,81.02
2023-01-17T06:28:28.296Z,81.16
2023-01-17T06:30:56.822Z,81.22
2023-01-17T06:33:27.394Z,81.42
2023-01-17T06:35:58.232Z,81.30
2023-01-17T06:38:27.665Z,81.50
2023-01-17T06:41:02.615Z,81.52
2023-01-17T06:43:33.729Z,81.92
2023-01-17T06:46:02.660Z,82.21
2023-01-17T06:48:30.907Z,82.07
2023-01-17T06:50:59.360Z,81.94
2023-01-17T06:53:27.593Z,81.90
2023-01-17T06:55:58.680Z,81.64
2023-01-17T06:58:26.884Z,81.58
2023-01-17T07:00:55.290Z,81.74
2023-01-17T07:03:27.626Z,81.59
2023-01-17T07:05:55.974Z,81.55
2023-01-17T07:08:24.207Z,81.56
2023-01-17T07:10:52.613Z,81.59
2023-01-17T07:13:22.242Z,81.35
2023-01-17T07:15:50.508Z,81.34
2023-01-17T07:18:20.696Z,81.25
2023-01-17T07:20:49.590Z,81.11
2023-01-17T07:23:18.293Z,81.30
2023-01-17T07:25:52.778Z,81.46
2023-01-17T07:28:23.024Z,81.35
2023-01-17T07:30:51.758Z,81.61
2023-01-17T07:33:20.519Z,81.68
2023-01-17T07:35:48.989Z,81.59
2023-01-17T07:38:19.553Z,81.21
2023-01-17T07:40:47.803Z,81.04
2023-01-17T07:43:16.760Z,80.91
2023-01-17T07:45:49.593Z,80.91
2023-01-17T07:48:18.803Z,80.87
2023-01-17T07:50:52.038Z,80.92
2023-01-17T07:53:20.289Z,80.98
2023-01-17T07:55:48.498Z,80.96
2023-01-17T07:58:16.739Z,81.08
2023-01-17T08:00:46.658Z,81.31
2023-01-17T08:03:17.448Z,81.23
2023-01-17T08:05:54.438Z,80.81
2023-01-17T08:08:22.974Z,80.60
2023-01-17T08:10:51.647Z,80.55
2023-01-17T08:13:19.861Z,80.29
2023-01-17T08:15:50.808Z,80.46
2023-01-17T08:18:19.414Z,80.27
2023-01-17T08:20:53.189Z,80.03
2023-01-17T08:23:21.601Z,79.94
2023-01-17T08:25:50.203Z,79.72
2023-01-17T08:28:21.011Z,79.56
2023-01-17T08:30:50.661Z,79.49
2023-01-17T08:33:18.867Z,79.54
2023-01-17T08:35:53.494Z,79.22
2023-01-17T08:38:24.788Z,78.94
2023-01-17T08:40:53.035Z,78.60
2023-01-17T08:43:21.405Z,78.32
2023-01-17T08:45:51.602Z,78.37
2023-01-17T08:48:19.849Z,78.34
2023-01-17T08:50:48.098Z,78.26
2023-01-17T08:53:16.450Z,78.05
2023-01-17T08:55:44.729Z,77.73
2023-01-17T08:58:12.981Z,77.56
2023-01-17T09:00:41.307Z,77.55
2023-01-17T09:03:14.370Z,77.60
2023-01-17T09:05:42.708Z,77.71
2023-01-17T09:08:11.212Z,77.28
2023-01-17T09:10:39.474Z,77.15
2023-01-17T09:13:08.121Z,76.94
2023-01-17T09:15:36.350Z,76.94
2023-01-17T09:18:04.932Z,76.92
2023-01-17T09:20:34.788Z,76.87
2023-01-17T09:23:04.020Z,76.58
2023-01-17T09:25:32.824Z,76.50
2023-01-17T09:28:01.141Z,76.23
2023-01-17T09:30:29.464Z,76.13
2023-01-17T09:32:59.360Z,76.20
2023-01-17T09:35:27.582Z,76.05
2023-01-17T09:37:57.338Z,75.90
2023-01-17T09:40:26.507Z,75.87
2023-01-17T09:43:01.392Z,75.83
2023-01-17T09:45:32.425Z,75.66
2023-01-17T09:48:02.479Z,75.63
2023-01-17T09:50:34.347Z,75.59
2023-01-17T09:53:07.011Z,75.57
2023-01-17T09:55:41.265Z,75.78
2023-01-17T09:58:14.062Z,75.63
2023-01-17T10:01:00.164Z,75.22
2023-01-17T10:03:47.475Z,75.35
2023-01-17T10:06:24.717Z,75.60
2023-01-17T10:09:15.240Z,75.46
2023-01-17T10:11:55.160Z,74.97
2023-01-17T10:14:45.567Z,74.90
2023-01-17T10:17:30.136Z,75.08
2023-01-17T10:20:10.682Z,75.37
2023-01-17T10:22:59.366Z,74.92
2023-01-17T10:25:42.964Z,75.20
2023-01-17T10:28:17.344Z,74.70
2023-01-17T10:30:49.997Z,75.23
2023-01-17T10:33:21.836Z,74.99
2023-01-17T10:35:57.126Z,74.60
2023-01-17T10:38:33.555Z,74.67
2023-01-17T10:41:10.526Z,74.86
2023-01-17T10:43:47.573Z,75.08
2023-01-17T10:46:20.137Z,74.62
2023-01-17T10:48:53.264Z,74.42
2023-01-17T10:51:43.860Z,74.37
2023-01-17T10:54:22.382Z,74.56
2023-01-17T10:56:52.260Z,74.43
2023-01-17T10:59:28.694Z,74.03
2023-01-17T11:01:57.206Z,74.44
2023-01-17T11:04:33.784Z,74.48
2023-01-17T11:07:20.647Z,74.42
2023-01-17T11:09:50.839Z,74.12
2023-01-17T11:12:25.999Z,75.08
2023-01-17T11:15:01.231Z,74.86
2023-01-17T11:17:30.520Z,74.37
2023-01-17T11:20:10.221Z,74.46
2023-01-17T11:22:38.729Z,75.53
2023-01-17T11:25:08.412Z,74.63
2023-01-17T11:27:41.944Z,74.90
2023-01-17T11:30:18.034Z,74.86
2023-01-17T11:32:54.159Z,73.55
2023-01-17T11:35:25.583Z,74.86
2023-01-17T11:37:59.288Z,74.04
2023-01-17T11:40:30.548Z,74.24
2023-01-17T11:43:06.956Z,74.48
2023-01-17T11:45:35.757Z,74.54
2023-01-17T11:48:16.497Z,73.94
2023-01-17T11:50:48.322Z,75.13
2023-01-17T11:53:22.978Z,74.24
2023-01-17T11:55:57.186Z,74.31
2023-01-17T11:58:28.883Z,75.67
2023-01-17T12:01:03.852Z,74.79
2023-01-17T12:04:14.581Z,73.96
2023-01-17T12:06:57.608Z,74.70
2023-01-17T12:09:36.838Z,75.04
2023-01-17T12:12:31.825Z,75.37
2023-01-17T12:15:13.247Z,78.38
2023-01-17T12:17:57.333Z,74.70
2023-01-17T12:20:31.441Z,75.87
2023-01-17T12:23:16.968Z,73.75
2023-01-17T12:26:01.164Z,73.96
2023-01-17T12:28:47.875Z,75.87
2023-01-17T12:31:27.109Z,75.56
2023-01-17T12:33:58.697Z,78.11
2023-01-17T12:36:40.666Z,74.74
2023-01-17T12:39:14.265Z,75.24
2023-01-17T12:41:54.096Z,75.91
2023-01-17T12:44:33.275Z,75.76
2023-01-17T12:47:05.855Z,76.85
2023-01-17T12:49:43.873Z,77.43
2023-01-17T12:52:24.177Z,75.45
2023-01-17T12:54:59.387Z,73.55
2023-01-17T12:57:33.108Z,74.38
2023-01-17T13:00:06.568Z,77.37
2023-01-17T13:02:40.021Z,74.05
2023-01-17T13:05:15.295Z,76.60
2023-01-17T13:07:50.496Z,75.99
2023-01-17T13:10:26.779Z,76.68
2023-01-17T13:12:59.226Z,75.69
2023-01-17T13:15:35.239Z,74.83
2023-01-17T13:18:10.637Z,74.65
2023-01-17T13:20:57.953Z,77.18
2023-01-17T13:23:31.206Z,77.11
2023-01-17T13:26:04.145Z,77.89
2023-01-17T13:28:46.793Z,75.73
2023-01-17T13:31:50.774Z,76.51
2023-01-17T13:34:54.836Z,73.69
2023-01-17T13:37:53.621Z,80.94
2023-01-17T13:40:37.452Z,73.90
2023-01-17T13:43:13.021Z,74.15
2023-01-17T13:45:41.517Z,76.16
2023-01-17T13:48:34.595Z,77.68
2023-01-17T13:51:03.958Z,80.76
2023-01-17T13:53:59.054Z,77.11
2023-01-17T13:56:35.362Z,73.64
2023-01-17T13:59:06.502Z,76.89
2023-01-17T14:01:54.420Z,77.76
2023-01-17T14:04:46.431Z,75.76
2023-01-17T14:07:21.836Z,78.53
2023-01-17T14:09:54.663Z,75.96
2023-01-17T14:12:33.613Z,75.79
2023-01-17T14:15:03.041Z,75.70
2023-01-17T14:17:51.924Z,77.21
2023-01-17T14:20:39.600Z,75.28
2023-01-17T14:23:37.354Z,75.02
2023-01-17T14:26:33.176Z,76.13
2023-01-17T14:29:40.269Z,74.67
2023-01-17T14:32:12.680Z,80.10
2023-01-17T14:34:41.640Z,77.47
2023-01-17T14:37:21.975Z,75.92
2023-01-17T14:39:51.612Z,79.03
2023-01-17T14:42:24.510Z,78.43
2023-01-17T14:45:01.992Z,75.89
2023-01-17T14:47:32.840Z,73.70
2023-01-17T14:50:21.928Z,73.70
2023-01-17T14:53:07.196Z,76.88
2023-01-17T14:55:37.576Z,76.71
2023-01-17T14:58:07.259Z,78.20
2023-01-17T15:00:40.671Z,75.85
2023-01-17T15:03:13.612Z,74.31
2023-01-17T15:05:43.857Z,75.79
2023-01-17T15:08:15.420Z,75.44
2023-01-17T15:10:51.449Z,80.66
2023-01-17T15:13:38.799Z,74.98
2023-01-17T15:16:21.321Z,75.30
2023-01-17T15:18:50.303Z,75.48
2023-01-17T15:21:21.017Z,75.02
2023-01-17T15:23:52.660Z,75.83
2023-01-17T15:26:23.513Z,75.04
2023-01-17T15:28:54.143Z,75.67
2023-01-17T15:31:40.169Z,75.30
2023-01-17T15:34:10.662Z,75.90
2023-01-17T15:36:39.919Z,75.42
2023-01-17T15:39:19.377Z,75.63
2023-01-17T15:41:49.784Z,75.30
2023-01-17T15:44:46.859Z,75.34
2023-01-17T15:47:30.612Z,75.65
2023-01-17T15:49:59.989Z,75.64
2023-01-17T15:52:29.063Z,75.44
2023-01-17T15:55:01.114Z,75.70
2023-01-17T15:57:31.487Z,75.38
2023-01-17T16:00:05.872Z,75.43
2023-01-17T16:02:43.360Z,75.58
2023-01-17T16:05:38.679Z,75.49
2023-01-17T16:08:38.593Z,75.68
2023-01-17T16:11:08.555Z,75.76
2023-01-17T16:13:42.162Z,75.82
2023-01-17T16:16:20.654Z,75.89
2023-01-17T16:18:50.127Z,75.93
2023-01-17T16:21:21.596Z,76.04
2023-01-17T16:23:50.214Z,76.08
2023-01-17T16:26:18.939Z,76.12
2023-01-17T16:28:47.683Z,76.15
2023-01-17T16:31:18.395Z,76.31
2023-01-17T16:33:49.549Z,76.31
2023-01-17T16:36:19.564Z,76.34
2023-01-17T16:38:50.826Z,76.41
2023-01-17T16:41:19.578Z,76.37
2023-01-17T16:43:57.134Z,76.53
2023-01-17T16:46:27.136Z,76.58
2023-01-17T16:48:55.790Z,76.65
2023-01-17T16:51:24.075Z,76.50
2023-01-17T16:53:52.306Z,76.48
2023-01-17T16:56:21.391Z,76.56
2023-01-17T16:58:49.663Z,76.50
2023-01-17T17:01:21.217Z,76.60
2023-01-17T17:03:51.174Z,76.75
2023-01-17T17:06:19.751Z,76.73
2023-01-17T17:08:48.241Z,76.77
2023-01-17T17:11:18.525Z,76.83
2023-01-17T17:13:48.031Z,76.82
2023-01-17T17:16:18.229Z,76.89
2023-01-17T17:18:48.490Z,76.92
2023-01-17T17:21:18.151Z,77.12
2023-01-17T17:23:46.473Z,77.31
2023-01-17T17:26:14.701Z,77.33
2023-01-17T17:28:43.438Z,77.47
2023-01-17T17:31:11.956Z,77.53
2023-01-17T17:33:41.541Z,77.74
2023-01-17T17:36:11.686Z,77.89
2023-01-17T17:38:51.094Z,77.76
2023-01-17T17:41:21.075Z,77.67
2023-01-17T17:43:49.601Z,77.68
2023-01-17T17:46:17.973Z,77.82
2023-01-17T17:48:46.345Z,77.95
2023-01-17T17:51:25.997Z,77.84
2023-01-17T17:53:56.570Z,77.84
2023-01-17T17:56:25.197Z,77.80
2023-01-17T17:58:53.744Z,77.86
2023-01-17T18:01:24.199Z,77.96
2023-01-17T18:03:52.686Z,78.11
2023-01-17T18:06:21.514Z,78.30
2023-01-17T18:08:52.113Z,78.14
2023-01-17T18:11:24.289Z,78.17
2023-01-17T18:13:53.456Z,78.33
2023-01-17T18:16:23.581Z,78.43
2023-01-17T18:18:53.808Z,78.34
2023-01-17T18:21:25.265Z,78.30
2023-01-17T18:23:56.692Z,78.37
2023-01-17T18:26:30.085Z,78.27
2023-01-17T18:29:00.196Z,78.21
2023-01-17T18:31:30.288Z,78.32
2023-01-17T18:34:02.227Z,78.41
2023-01-17T18:36:30.527Z,78.50
2023-01-17T18:38:59.214Z,78.47
2023-01-17T18:41:30.901Z,78.43
2023-01-17T18:43:59.684Z,78.18
2023-01-17T18:46:28.051Z,78.30
2023-01-17T18:48:57.983Z,78.48
2023-01-17T18:51:27.174Z,78.41
2023-01-17T18:53:55.459Z,78.34
2023-01-17T18:56:24.352Z,78.31
2023-01-17T18:58:55.259Z,78.21
2023-01-17T19:01:25.216Z,78.40
2023-01-17T19:03:55.531Z,78.42
2023-01-17T19:06:25.937Z,78.37
2023-01-17T19:08:54.399Z,78.18
2023-01-17T19:11:23.962Z,78.00
2023-01-17T19:13:53.887Z,77.86
2023-01-17T19:16:25.500Z,77.79
2023-01-17T19:18:54.453Z,77.92
2023-01-17T19:21:24.815Z,78.00
2023-01-17T19:23:53.525Z,78.14
2023-01-17T19:26:24.004Z,78.29
2023-01-17T19:28:55.950Z,78.38
2023-01-17T19:31:26.145Z,78.16
2023-01-17T19:33:57.374Z,77.82
2023-01-17T19:36:27.448Z,77.40
2023-01-17T19:39:04.558Z,76.79
2023-01-17T19:41:35.545Z,76.42
2023-01-17T19:44:07.600Z,76.84
2023-01-17T19:46:36.940Z,77.08
2023-01-17T19:49:07.076Z,77.11
2023-01-17T19:51:36.704Z,77.24
2023-01-17T19:54:06.605Z,77.26
2023-01-17T19:56:35.211Z,77.41
2023-01-17T19:59:03.495Z,77.40
2023-01-17T20:01:35.041Z,77.45
2023-01-17T20:04:04.449Z,77.65
2023-01-17T20:06:35.233Z,77.93
2023-01-17T20:09:04.499Z,78.02
2023-01-17T20:11:32.867Z,77.92
2023-01-17T20:14:01.237Z,77.70
2023-01-17T20:16:31.527Z,77.48
2023-01-17T20:19:02.786Z,77.21
2023-01-17T20:21:32.122Z,77.15
2023-01-17T20:24:03.339Z,77.16
2023-01-17T20:26:35.664Z,77.20
2023-01-17T20:29:10.230Z,77.25
2023-01-17T20:31:40.927Z,77.34
2023-01-17T20:34:11.852Z,77.33
2023-01-17T20:36:42.175Z,77.24
2023-01-17T20:39:13.165Z,77.27
2023-01-17T20:41:43.981Z,77.19
2023-01-17T20:44:15.180Z,77.23
2023-01-17T20:46:43.581Z,77.37
2023-01-17T20:49:16.366Z,77.27
2023-01-17T20:51:45.720Z,77.12
2023-01-17T20:54:15.733Z,76.95
2023-01-17T20:56:47.401Z,76.76
2023-01-17T20:59:18.004Z,76.73
2023-01-17T21:01:47.100Z,77.05
2023-01-17T21:04:18.012Z,77.24
2023-01-17T21:06:46.335Z,77.39
2023-01-17T21:09:17.241Z,77.46
2023-01-17T21:11:45.622Z,77.43
2023-01-17T21:14:13.910Z,77.37
2023-01-17T21:16:43.322Z,77.37
2023-01-17T21:19:16.447Z,77.51
2023-01-17T21:21:44.746Z,77.62
2023-01-17T21:24:16.452Z,77.47
2023-01-17T21:26:45.811Z,77.27
2023-01-17T21:29:16.143Z,76.98
2023-01-17T21:31:47.187Z,76.81
2023-01-17T21:34:16.884Z,76.78
2023-01-17T21:36:45.193Z,76.95
2023-01-17T21:39:16.629Z,76.98
2023-01-17T21:41:47.912Z,77.19
2023-01-17T21:44:20.319Z,77.24
2023-01-17T21:46:49.584Z,77.22
2023-01-17T21:49:19.249Z,77.26
2023-01-17T21:52:04.834Z,77.37
2023-01-17T21:54:50.792Z,77.44
2023-01-17T21:57:39.571Z,77.39
2023-01-17T22:00:10.269Z,77.41
2023-01-17T22:02:44.574Z,77.42
2023-01-17T22:05:14.953Z,77.43
2023-01-17T22:08:03.433Z,77.27
2023-01-17T22:10:31.771Z,77.15
2023-01-17T22:13:00.059Z,77.32
2023-01-17T22:15:28.439Z,77.47
2023-01-17T22:17:56.953Z,77.59
2023-01-17T22:20:26.833Z,77.73
2023-01-17T22:22:55.249Z,77.98
2023-01-17T22:25:24.407Z,78.04
2023-01-17T22:27:52.680Z,78.24
2023-01-17T22:30:20.994Z,78.26
2023-01-17T22:32:49.234Z,78.30
2023-01-17T22:35:17.727Z,78.22
2023-01-17T22:37:47.423Z,78.53
2023-01-17T22:40:15.937Z,78.62
2023-01-17T22:42:44.291Z,78.71
2023-01-17T22:45:13.215Z,78.54
2023-01-17T22:47:41.603Z,78.24
2023-01-17T22:50:11.471Z,78.10
2023-01-17T22:52:40.077Z,77.98
2023-01-17T22:55:12.162Z,78.10
2023-01-17T22:57:40.512Z,78.36
2023-01-17T23:00:14.565Z,78.46
2023-01-17T23:02:43.749Z,78.39
2023-01-17T23:05:12.269Z,78.65
2023-01-17T23:07:44.220Z,78.75
2023-01-17T23:10:36.005Z,78.83
2023-01-17T23:13:04.228Z,78.86
2023-01-17T23:15:49.986Z,78.90
2023-01-17T23:18:35.678Z,78.94
2023-01-17T23:21:03.929Z,79.06
2023-01-17T23:23:33.476Z,78.98
2023-01-17T23:26:03.065Z,78.95
2023-01-17T23:28:30.377Z,78.66
2023-01-17T23:31:04.927Z,78.56
2023-01-17T23:33:33.340Z,78.39
2023-01-17T23:36:01.573Z,78.20
2023-01-17T23:38:29.639Z,78.59
2023-01-17T23:41:32.947Z,78.87
2023-01-17T23:44:01.314Z,79.08
2023-01-17T23:46:30.259Z,79.15
2023-01-17T23:48:58.673Z,79.17
2023-01-17T23:51:26.912Z,79.19
2023-01-17T23:54:05.273Z,79.27
2023-01-17T23:56:35.037Z,79.24
2023-01-17T23:59:04.484Z,79.38
